Time;durP1;ratioP1;P1;durP2;ratioP2;P2;SDS_P1;SDS_P2;PMS_P1;PMS_P2;Temp;Humidity;BMP_temperature;BMP_pressure;BME280_temperature;BME280_humidity;BME280_pressure;Samples;Min_cycle;Max_cycle;Signal;HPM_P1;HPM_P2
2023/04/12 00:01:52;;;;;;;2.22;1.30;;;9.90;99.90;;;;;;5115919;28;20260;-57
2023/04/12 00:04:21;;;;;;;2.47;1.63;;;9.90;99.90;;;;;;5115741;28;20250;-57
2023/04/12 00:06:47;;;;;;;2.33;1.30;;;9.80;99.90;;;;;;5116054;28;20173;-57
2023/04/12 00:09:14;;;;;;;3.13;1.20;;;9.90;99.90;;;;;;5115690;28;20280;-57
2023/04/12 00:11:40;;;;;;;2.30;1.30;;;9.90;99.90;;;;;;5116206;28;20184;-57
2023/04/12 00:14:06;;;;;;;3.25;1.30;;;9.90;99.90;;;;;;5115768;28;20584;-57
2023/04/12 00:16:32;;;;;;;3.50;1.52;;;9.90;99.90;;;;;;5115559;28;20185;-57
2023/04/12 00:18:58;;;;;;;1.63;1.10;;;9.80;99.90;;;;;;5115392;28;20570;-57
2023/04/12 00:21:27;;;;;;;2.05;1.17;;;9.80;99.90;;;;;;5115619;28;20169;-57
2023/04/12 00:23:53;;;;;;;1.77;1.10;;;9.90;99.90;;;;;;5115472;28;20223;-57
2023/04/12 00:26:20;;;;;;;1.65;1.10;;;9.90;99.90;;;;;;5115504;28;20166;-59
2023/04/12 00:28:47;;;;;;;2.75;1.52;;;9.90;99.90;;;;;;5115322;28;20177;-57
2023/04/12 00:31:13;;;;;;;3.95;1.30;;;9.80;99.90;;;;;;5115420;28;20197;-59
2023/04/12 00:33:38;;;;;;;4.00;1.40;;;9.90;99.90;;;;;;5115117;28;20184;-58
2023/04/12 00:36:04;;;;;;;2.75;1.38;;;9.80;99.90;;;;;;5115654;28;20516;-57
2023/04/12 00:38:30;;;;;;;3.42;1.30;;;9.80;99.90;;;;;;5115312;28;20226;-57
2023/04/12 00:40:56;;;;;;;3.70;1.60;;;9.80;99.90;;;;;;5115247;28;20181;-57
2023/04/12 00:43:22;;;;;;;4.82;1.55;;;9.80;99.90;;;;;;5115242;28;20278;-57
2023/04/12 00:45:48;;;;;;;3.75;1.20;;;9.90;99.90;;;;;;5114856;28;20234;-57
2023/04/12 00:48:15;;;;;;;1.95;1.30;;;9.90;99.90;;;;;;5114880;28;20631;-57
2023/04/12 00:50:43;;;;;;;2.55;1.27;;;9.80;99.90;;;;;;5114900;28;20209;-57
2023/04/12 00:53:12;;;;;;;2.10;1.27;;;9.80;99.90;;;;;;5114907;28;20173;-57
2023/04/12 00:55:40;;;;;;;4.15;1.70;;;9.80;99.90;;;;;;5114872;28;20525;-57
2023/04/12 00:58:05;;;;;;;3.22;1.27;;;9.80;99.90;;;;;;5114869;28;20169;-57
2023/04/12 01:00:33;;;;;;;4.28;1.30;;;9.70;99.90;;;;;;5114548;28;20169;-57
2023/04/12 01:03:01;;;;;;;2.75;1.52;;;9.90;99.90;;;;;;5114801;28;20230;-57
2023/04/12 01:05:27;;;;;;;1.83;1.13;;;9.80;99.90;;;;;;5114723;28;20169;-57
2023/04/12 01:08:39;;;;;;;4.72;1.50;;;9.80;99.90;;;;;;5114318;28;20210;-58
2023/04/12 01:11:17;;;;;;;3.65;1.45;;;9.80;99.90;;;;;;5075377;28;20706;-58
2023/04/12 01:14:13;;;;;;;2.20;1.42;;;9.80;99.90;;;;;;5114647;28;20172;-58
2023/04/12 01:16:52;;;;;;;2.58;1.30;;;9.80;99.90;;;;;;5078487;28;20233;-58
2023/04/12 01:20:00;;;;;;;4.20;1.50;;;9.80;99.90;;;;;;5114264;28;20169;-58
2023/04/12 01:22:45;;;;;;;3.63;1.45;;;9.80;99.90;;;;;;5114511;28;20197;-58
2023/04/12 01:25:33;;;;;;;3.03;1.90;;;9.80;99.90;;;;;;5114475;28;20174;-58
2023/04/12 01:28:07;;;;;;;3.30;1.60;;;9.90;99.90;;;;;;5114062;28;20177;-58
2023/04/12 01:30:33;;;;;;;3.50;1.73;;;9.80;99.90;;;;;;5114174;28;20200;-58
2023/04/12 01:33:02;;;;;;;4.57;1.60;;;9.80;99.90;;;;;;5096046;28;20189;-57
2023/04/12 01:35:30;;;;;;;4.15;1.67;;;9.80;99.90;;;;;;5114160;28;20180;-58
2023/04/12 01:37:59;;;;;;;2.72;1.58;;;9.80;99.90;;;;;;5113902;28;20188;-57
2023/04/12 01:40:27;;;;;;;3.05;1.60;;;9.80;99.90;;;;;;5113868;28;20596;-58
2023/04/12 01:43:08;;;;;;;3.65;1.55;;;9.90;99.90;;;;;;5114021;28;20540;-58
2023/04/12 01:45:34;;;;;;;3.60;1.95;;;9.80;99.90;;;;;;5113991;28;20176;-58
2023/04/12 01:48:01;;;;;;;3.45;1.65;;;9.80;99.90;;;;;;5113429;28;20266;-58
2023/04/12 01:50:41;;;;;;;3.20;1.70;;;9.80;99.90;;;;;;5095510;28;20597;-58
2023/04/12 01:53:20;;;;;;;2.75;1.45;;;9.90;99.90;;;;;;5114143;28;20176;-58
2023/04/12 01:55:47;;;;;;;2.40;1.50;;;9.90;99.90;;;;;;5113977;28;20666;-58
2023/04/12 01:58:19;;;;;;;2.45;1.50;;;9.90;99.90;;;;;;5113808;28;20694;-58
2023/04/12 02:00:45;;;;;;;2.95;1.63;;;9.90;99.90;;;;;;5113797;28;20169;-58
2023/04/12 02:03:12;;;;;;;2.53;1.40;;;9.90;99.90;;;;;;5113459;28;20180;-57
2023/04/12 02:05:38;;;;;;;3.05;1.38;;;9.90;99.90;;;;;;5113509;28;20536;-58
2023/04/12 02:08:04;;;;;;;2.60;1.42;;;9.90;99.90;;;;;;5113683;28;20222;-58
2023/04/12 02:10:32;;;;;;;3.28;1.60;;;10.00;99.90;;;;;;5113638;28;20751;-58
2023/04/12 02:13:01;;;;;;;4.47;1.60;;;10.00;99.90;;;;;;5113602;28;20641;-58
2023/04/12 02:15:28;;;;;;;3.25;1.60;;;10.00;99.90;;;;;;5113384;28;20650;-58
2023/04/12 02:17:54;;;;;;;5.88;1.80;;;9.90;99.90;;;;;;5113300;28;20181;-58
2023/04/12 02:20:21;;;;;;;3.42;1.85;;;9.90;99.90;;;;;;5116405;28;20177;-57
2023/04/12 02:22:46;;;;;;;3.22;1.60;;;9.80;99.90;;;;;;5117908;28;20165;-58
2023/04/12 02:25:12;;;;;;;3.60;1.95;;;9.80;99.90;;;;;;5117963;28;20252;-58
2023/04/12 02:27:38;;;;;;;3.53;1.52;;;9.90;99.90;;;;;;5117687;28;20195;-58
2023/04/12 02:30:04;;;;;;;2.97;1.70;;;9.90;99.90;;;;;;5117529;28;20197;-57
2023/04/12 02:32:31;;;;;;;2.13;1.63;;;9.90;99.90;;;;;;5117373;28;20188;-58
2023/04/12 02:34:57;;;;;;;2.30;1.30;;;10.00;99.90;;;;;;5117691;28;20208;-58
2023/04/12 02:37:28;;;;;;;4.13;1.77;;;9.90;99.90;;;;;;5117685;28;20641;-57
2023/04/12 02:39:55;;;;;;;2.28;1.65;;;10.00;99.90;;;;;;5117462;28;20216;-58
2023/04/12 02:42:21;;;;;;;5.60;1.55;;;10.00;99.90;;;;;;5117358;28;20173;-58
2023/04/12 02:44:47;;;;;;;5.20;1.70;;;9.90;99.90;;;;;;5117651;28;20183;-58
2023/04/12 02:47:13;;;;;;;3.47;1.55;;;9.90;99.90;;;;;;5117043;28;20169;-57
2023/04/12 02:49:39;;;;;;;3.30;1.48;;;9.90;99.90;;;;;;5117275;28;20212;-58
2023/04/12 02:52:05;;;;;;;3.97;1.80;;;9.90;99.90;;;;;;5117289;28;20177;-58
2023/04/12 02:54:30;;;;;;;4.70;1.70;;;10.00;99.90;;;;;;5117179;28;20170;-58
2023/04/12 02:56:56;;;;;;;3.47;1.45;;;10.00;99.90;;;;;;5117137;28;20222;-58
2023/04/12 02:59:24;;;;;;;3.72;1.48;;;10.00;99.90;;;;;;5116960;28;20215;-57
2023/04/12 03:01:49;;;;;;;3.80;1.70;;;10.00;99.90;;;;;;5116863;28;20569;-58
2023/04/12 03:04:15;;;;;;;2.63;1.38;;;10.00;99.90;;;;;;5117111;28;20169;-58
2023/04/12 03:06:51;;;;;;;2.90;1.45;;;10.00;99.90;;;;;;5116983;28;20215;-58
2023/04/12 03:09:17;;;;;;;5.63;1.50;;;10.10;99.90;;;;;;5116984;28;20181;-58
2023/04/12 03:11:43;;;;;;;3.00;1.65;;;10.00;99.90;;;;;;5116849;28;20268;-59
2023/04/12 03:14:08;;;;;;;2.72;1.38;;;10.00;99.90;;;;;;5116759;28;20615;-58
2023/04/12 03:16:35;;;;;;;1.73;1.13;;;10.00;99.90;;;;;;5116615;28;20180;-58
2023/04/12 03:19:01;;;;;;;2.33;1.52;;;10.10;99.90;;;;;;5116774;28;20243;-58
2023/04/12 03:21:27;;;;;;;3.28;1.60;;;10.00;99.90;;;;;;5116783;28;20165;-58
2023/04/12 03:23:53;;;;;;;1.63;1.27;;;10.00;99.90;;;;;;5116570;28;20261;-58
2023/04/12 03:26:19;;;;;;;3.70;1.60;;;10.10;99.90;;;;;;5116578;28;20174;-58
2023/04/12 03:28:48;;;;;;;3.00;1.33;;;10.00;99.90;;;;;;5116365;28;20542;-58
2023/04/12 03:31:14;;;;;;;2.50;1.40;;;10.00;99.90;;;;;;5116483;28;20212;-58
2023/04/12 03:33:39;;;;;;;2.15;1.52;;;10.00;99.90;;;;;;5116505;28;20177;-58
2023/04/12 03:36:06;;;;;;;2.00;1.40;;;10.10;99.90;;;;;;5116314;28;20188;-58
2023/04/12 03:38:31;;;;;;;2.83;1.42;;;10.20;99.90;;;;;;5116271;28;20230;-58
2023/04/12 03:40:57;;;;;;;2.67;1.70;;;10.10;99.90;;;;;;5116410;28;20181;-58
2023/04/12 03:43:23;;;;;;;2.17;1.50;;;10.10;99.90;;;;;;5116231;28;20169;-58
2023/04/12 03:45:48;;;;;;;2.00;1.38;;;10.20;99.90;;;;;;5116318;28;20173;-58
2023/04/12 03:48:15;;;;;;;2.95;1.40;;;10.10;99.90;;;;;;5116118;28;20300;-57
2023/04/12 03:50:43;;;;;;;1.58;1.27;;;10.20;99.90;;;;;;5116420;28;20533;-58
2023/04/12 03:53:12;;;;;;;2.28;1.30;;;10.20;99.90;;;;;;5098267;28;20169;-58
2023/04/12 03:55:37;;;;;;;2.65;1.40;;;10.20;99.90;;;;;;5115955;28;20711;-58
2023/04/12 03:58:03;;;;;;;3.38;1.70;;;10.20;99.90;;;;;;5115739;28;20181;-58
2023/04/12 04:00:32;;;;;;;2.50;1.67;;;10.20;99.90;;;;;;5116267;28;20173;-58
2023/04/12 04:03:01;;;;;;;2.40;1.45;;;10.10;99.90;;;;;;5115853;28;20280;-58
2023/04/12 04:05:28;;;;;;;2.75;1.40;;;10.10;99.90;;;;;;5115714;28;20173;-58
2023/04/12 04:07:55;;;;;;;1.40;1.30;;;10.20;99.90;;;;;;5115743;28;20666;-58
2023/04/12 04:10:21;;;;;;;2.28;1.50;;;10.20;99.90;;;;;;5097208;28;20201;-58
2023/04/12 04:12:46;;;;;;;2.55;1.70;;;10.20;99.90;;;;;;5115828;28;20229;-58
2023/04/12 04:15:14;;;;;;;3.15;1.30;;;10.30;99.90;;;;;;5115751;28;20173;-58
2023/04/12 04:17:41;;;;;;;1.65;1.55;;;10.20;99.90;;;;;;5115614;28;20311;-59
2023/04/12 04:20:08;;;;;;;2.67;1.48;;;10.20;99.90;;;;;;5115478;28;20209;-58
2023/04/12 04:22:33;;;;;;;2.63;1.60;;;10.20;99.90;;;;;;5115532;28;20636;-58
2023/04/12 04:25:01;;;;;;;2.65;1.30;;;10.20;99.90;;;;;;5115383;28;20310;-58
2023/04/12 04:27:29;;;;;;;1.95;1.70;;;10.20;99.90;;;;;;5114991;28;20317;-58
2023/04/12 04:29:58;;;;;;;4.10;1.60;;;10.20;99.90;;;;;;5114763;28;20220;-58
2023/04/12 04:32:24;;;;;;;2.47;1.60;;;10.10;99.90;;;;;;5114304;28;20194;-58
2023/04/12 04:34:50;;;;;;;2.00;1.65;;;10.20;99.90;;;;;;5114379;28;20178;-58
2023/04/12 04:37:17;;;;;;;1.80;1.67;;;10.30;99.90;;;;;;5114312;28;20185;-58
2023/04/12 04:39:43;;;;;;;3.60;1.77;;;10.20;99.90;;;;;;5114497;28;20208;-58
2023/04/12 04:42:09;;;;;;;3.17;1.92;;;10.30;99.90;;;;;;5114180;28;20201;-58
2023/04/12 04:44:36;;;;;;;3.25;1.92;;;10.20;99.90;;;;;;5114515;28;20212;-58
2023/04/12 04:47:02;;;;;;;3.80;2.30;;;10.20;99.90;;;;;;5114692;28;20214;-58
2023/04/12 04:49:28;;;;;;;2.45;2.03;;;10.30;99.90;;;;;;5114452;28;20241;-58
2023/04/12 04:51:53;;;;;;;3.88;2.38;;;10.20;99.90;;;;;;5114921;28;20289;-58
2023/04/12 04:54:19;;;;;;;4.93;2.42;;;10.10;99.90;;;;;;5114612;28;20174;-58
2023/04/12 04:56:45;;;;;;;4.10;1.98;;;10.20;99.90;;;;;;5115214;28;20180;-58
2023/04/12 04:59:10;;;;;;;4.50;2.20;;;10.30;99.90;;;;;;5114889;28;20252;-59
2023/04/12 05:01:37;;;;;;;4.32;2.17;;;10.20;99.90;;;;;;5114668;28;20177;-57
2023/04/12 05:04:02;;;;;;;4.00;2.72;;;10.20;99.90;;;;;;5114090;28;20169;-57
2023/04/12 05:06:29;;;;;;;4.35;2.55;;;10.20;99.90;;;;;;5113061;28;20226;-57
2023/04/12 05:08:55;;;;;;;4.07;2.50;;;10.20;99.90;;;;;;5113550;28;20177;-57
2023/04/12 05:11:21;;;;;;;3.80;2.78;;;10.10;99.90;;;;;;5112529;28;20287;-58
2023/04/12 05:13:46;;;;;;;10.55;3.50;;;10.10;99.90;;;;;;5113484;28;20181;-57
2023/04/12 05:16:12;;;;;;;6.72;3.10;;;10.10;99.90;;;;;;5113917;28;20628;-57
2023/04/12 05:18:38;;;;;;;6.30;3.10;;;10.20;99.90;;;;;;5113880;28;20170;-57
2023/04/12 05:21:04;;;;;;;7.82;3.20;;;10.20;99.90;;;;;;5114073;28;20177;-57
2023/04/12 05:23:34;;;;;;;6.45;3.00;;;10.20;99.90;;;;;;5112971;28;20173;-58
2023/04/12 05:25:59;;;;;;;7.13;3.63;;;10.20;99.90;;;;;;5114290;28;20639;-57
2023/04/12 05:28:25;;;;;;;8.60;3.67;;;10.20;99.90;;;;;;5114236;28;20184;-57
2023/04/12 05:30:51;;;;;;;7.05;3.22;;;10.30;99.90;;;;;;5114097;28;20208;-58
2023/04/12 05:33:16;;;;;;;6.28;3.47;;;10.20;99.90;;;;;;5114259;28;20170;-57
2023/04/12 05:35:42;;;;;;;6.13;3.20;;;10.30;99.90;;;;;;5114105;28;20205;-57
2023/04/12 05:38:07;;;;;;;6.95;3.33;;;10.40;99.90;;;;;;5113895;28;20177;-57
2023/04/12 05:40:35;;;;;;;6.15;3.50;;;10.40;99.90;;;;;;5114277;28;20185;-58
2023/04/12 05:43:01;;;;;;;7.43;3.00;;;10.30;99.90;;;;;;5114047;28;20192;-59
2023/04/12 05:45:27;;;;;;;8.20;3.40;;;10.30;99.90;;;;;;5113859;28;20176;-58
2023/04/12 05:47:54;;;;;;;8.32;3.65;;;10.20;99.90;;;;;;5113861;28;20221;-58
2023/04/12 05:50:19;;;;;;;7.30;3.60;;;10.20;99.90;;;;;;5095590;28;20562;-58
2023/04/12 05:52:47;;;;;;;8.23;3.15;;;10.30;99.90;;;;;;5113675;28;20177;-58
2023/04/12 05:55:13;;;;;;;6.40;3.30;;;10.20;99.90;;;;;;5094888;28;20535;-58
2023/04/12 05:57:39;;;;;;;6.72;3.40;;;10.30;99.90;;;;;;5113742;28;20173;-59
2023/04/12 06:00:12;;;;;;;9.65;3.95;;;10.30;99.90;;;;;;5113612;28;20659;-58
2023/04/12 06:02:38;;;;;;;8.45;3.72;;;10.30;99.90;;;;;;5113640;28;20177;-58
2023/04/12 06:05:04;;;;;;;5.93;3.97;;;10.40;99.90;;;;;;5113528;28;20177;-58
2023/04/12 06:07:30;;;;;;;5.28;4.10;;;10.40;99.90;;;;;;5113690;28;20639;-58
2023/04/12 06:09:56;;;;;;;7.18;4.20;;;10.40;99.90;;;;;;5113791;28;20294;-58
2023/04/12 06:12:21;;;;;;;9.48;4.88;;;10.40;99.90;;;;;;5113646;28;20176;-58
2023/04/12 06:14:47;;;;;;;7.88;3.90;;;10.40;99.90;;;;;;5113641;28;20169;-58
2023/04/12 06:17:13;;;;;;;5.90;3.80;;;10.40;99.90;;;;;;5113418;28;20178;-59
2023/04/12 06:19:38;;;;;;;7.07;4.18;;;10.40;99.90;;;;;;5113415;28;20239;-58
2023/04/12 06:22:04;;;;;;;6.45;4.03;;;10.40;99.90;;;;;;5113458;28;20219;-58
2023/04/12 06:24:30;;;;;;;9.25;4.22;;;10.40;99.90;;;;;;5113651;28;20644;-58
2023/04/12 06:26:56;;;;;;;7.22;3.38;;;10.40;99.90;;;;;;5113294;28;20186;-58
2023/04/12 06:29:21;;;;;;;9.40;3.95;;;10.50;99.90;;;;;;5113263;28;20722;-58
2023/04/12 06:31:47;;;;;;;7.82;3.70;;;10.50;99.90;;;;;;5113362;28;20315;-58
2023/04/12 06:34:13;;;;;;;8.23;3.85;;;10.50;99.90;;;;;;5113275;28;20173;-58
2023/04/12 06:36:40;;;;;;;6.53;3.20;;;10.50;99.90;;;;;;5113548;28;20520;-58
2023/04/12 06:39:07;;;;;;;8.50;3.90;;;10.60;99.90;;;;;;5113396;28;20181;-58
2023/04/12 06:41:32;;;;;;;6.82;3.10;;;10.50;99.90;;;;;;5113352;28;20258;-57
2023/04/12 06:43:58;;;;;;;8.38;3.20;;;10.40;99.90;;;;;;5113340;28;20201;-58
2023/04/12 06:46:27;;;;;;;7.88;3.13;;;10.40;99.90;;;;;;5113238;28;20180;-58
2023/04/12 06:48:53;;;;;;;10.27;3.60;;;10.40;99.90;;;;;;5113419;28;20604;-58
2023/04/12 06:51:19;;;;;;;8.85;3.38;;;10.40;99.90;;;;;;5113348;28;20292;-58
2023/04/12 06:53:44;;;;;;;9.18;3.35;;;10.50;99.90;;;;;;5113646;28;20185;-58
2023/04/12 06:56:10;;;;;;;11.50;3.60;;;10.50;99.90;;;;;;5113389;28;20180;-58
2023/04/12 06:58:36;;;;;;;7.55;3.63;;;10.50;99.90;;;;;;5113148;28;20223;-58
2023/04/12 07:01:09;;;;;;;11.75;3.85;;;10.70;99.90;;;;;;5113143;28;20201;-58
2023/04/12 07:03:35;;;;;;;9.07;3.78;;;10.90;99.90;;;;;;5112918;28;20667;-57
2023/04/12 07:06:01;;;;;;;10.23;3.33;;;11.20;99.90;;;;;;5115211;28;20165;-58
2023/04/12 07:08:36;;;;;;;12.90;3.35;;;11.50;99.90;;;;;;5116942;28;20264;-58
2023/04/12 07:11:03;;;;;;;8.23;3.38;;;11.60;99.90;;;;;;5116860;28;20238;-59
2023/04/12 07:13:29;;;;;;;8.98;3.33;;;11.50;99.90;;;;;;5116781;28;20177;-58
2023/04/12 07:15:55;;;;;;;10.60;3.50;;;11.60;99.90;;;;;;5116660;28;20271;-58
2023/04/12 07:18:21;;;;;;;10.48;3.72;;;11.80;99.90;;;;;;5116987;28;20197;-58
2023/04/12 07:20:53;;;;;;;10.93;3.53;;;11.90;99.90;;;;;;5116906;28;20527;-58
2023/04/12 07:23:19;;;;;;;8.23;3.13;;;12.20;99.90;;;;;;5116596;28;20176;-58
2023/04/12 07:25:44;;;;;;;7.05;3.00;;;12.10;99.90;;;;;;5116772;28;20513;-58
2023/04/12 07:28:10;;;;;;;7.47;3.30;;;12.10;99.90;;;;;;5116498;28;20180;-58
2023/04/12 07:30:39;;;;;;;12.95;3.22;;;12.10;99.90;;;;;;5116364;28;20235;-58
2023/04/12 07:33:05;;;;;;;9.52;3.40;;;12.20;99.90;;;;;;5116527;28;20178;-58
2023/04/12 07:35:31;;;;;;;8.75;3.13;;;12.50;99.90;;;;;;5116558;28;20496;-58
2023/04/12 07:37:57;;;;;;;11.10;3.72;;;12.80;99.90;;;;;;5116283;28;20200;-58
2023/04/12 07:40:23;;;;;;;8.35;2.97;;;12.80;99.90;;;;;;5116198;28;20632;-58
2023/04/12 07:42:49;;;;;;;13.93;3.22;;;12.80;99.90;;;;;;5116256;28;20262;-59
2023/04/12 07:45:15;;;;;;;9.63;3.00;;;12.60;99.90;;;;;;5116094;28;20424;-59
2023/04/12 07:47:41;;;;;;;7.63;2.55;;;12.70;99.90;;;;;;5115972;28;20616;-58
2023/04/12 07:50:07;;;;;;;10.95;3.25;;;12.60;99.90;;;;;;5116401;28;20212;-58
2023/04/12 07:52:33;;;;;;;8.90;3.30;;;12.60;99.90;;;;;;5116135;28;20531;-57
2023/04/12 07:54:58;;;;;;;11.23;3.45;;;12.50;99.90;;;;;;5116146;28;20173;-57
2023/04/12 07:57:25;;;;;;;10.40;3.35;;;12.40;99.90;;;;;;5116045;28;20667;-57
2023/04/12 07:59:51;;;;;;;10.73;3.53;;;12.30;99.90;;;;;;5115888;28;20211;-57
2023/04/12 08:02:23;;;;;;;8.93;3.08;;;12.20;99.90;;;;;;5115831;28;20193;-57
2023/04/12 08:04:50;;;;;;;11.25;3.65;;;12.00;99.90;;;;;;5116024;28;20182;-59
2023/04/12 08:07:15;;;;;;;9.32;3.65;;;11.80;99.90;;;;;;5115808;28;20169;-57
2023/04/12 08:09:41;;;;;;;12.43;3.20;;;11.80;99.90;;;;;;5115847;28;20242;-57
2023/04/12 08:12:07;;;;;;;10.48;3.65;;;11.70;99.90;;;;;;5115671;28;20635;-57
2023/04/12 08:14:33;;;;;;;11.35;3.42;;;11.70;99.90;;;;;;5115543;28;20161;-57
2023/04/12 08:16:58;;;;;;;12.95;3.28;;;11.70;99.90;;;;;;5114791;28;20212;-57
2023/04/12 08:19:24;;;;;;;10.40;3.30;;;11.90;99.90;;;;;;5115639;28;20180;-57
2023/04/12 08:21:50;;;;;;;14.32;3.65;;;11.90;99.90;;;;;;5115606;28;20177;-57
2023/04/12 08:24:15;;;;;;;10.73;3.42;;;11.90;99.90;;;;;;5115534;28;20289;-57
2023/04/12 08:26:41;;;;;;;12.80;2.97;;;11.80;99.90;;;;;;5115360;28;20184;-57
2023/04/12 08:29:07;;;;;;;9.35;3.00;;;11.80;99.90;;;;;;5115299;28;20631;-57
2023/04/12 08:31:33;;;;;;;12.82;3.00;;;11.70;99.90;;;;;;5115448;28;20208;-57
2023/04/12 08:33:58;;;;;;;11.38;3.28;;;11.50;99.90;;;;;;5115396;28;20176;-57
2023/04/12 08:36:26;;;;;;;12.50;3.25;;;11.40;99.90;;;;;;5097181;28;20631;-57
2023/04/12 08:38:54;;;;;;;8.82;3.15;;;11.00;99.90;;;;;;5115247;28;20520;-57
2023/04/12 08:41:20;;;;;;;10.00;2.90;;;11.10;99.90;;;;;;5115132;28;20161;-59
2023/04/12 08:43:46;;;;;;;11.55;3.40;;;11.00;99.90;;;;;;5114991;28;20569;-58
2023/04/12 08:46:16;;;;;;;12.38;3.22;;;11.10;99.90;;;;;;5115273;28;20259;-58
2023/04/12 08:48:45;;;;;;;9.40;3.08;;;11.20;99.90;;;;;;5114885;28;20225;-58
2023/04/12 08:51:14;;;;;;;10.52;3.28;;;11.40;99.90;;;;;;5114920;28;20283;-58
2023/04/12 08:53:40;;;;;;;8.60;2.85;;;11.40;99.90;;;;;;5114851;28;20238;-59
2023/04/12 08:56:09;;;;;;;9.27;3.10;;;11.50;99.90;;;;;;5114705;28;20267;-58
2023/04/12 08:58:43;;;;;;;8.48;2.92;;;11.60;99.90;;;;;;5114805;28;20177;-58
2023/04/12 09:01:14;;;;;;;11.15;3.50;;;11.70;99.90;;;;;;5114965;28;20171;-58
2023/04/12 09:03:41;;;;;;;9.45;3.28;;;11.80;99.90;;;;;;5114734;28;20169;-59
2023/04/12 09:06:07;;;;;;;8.93;3.42;;;12.00;99.90;;;;;;5114628;28;20169;-58
2023/04/12 09:08:33;;;;;;;13.65;3.22;;;12.50;99.90;;;;;;5114597;28;20209;-57
2023/04/12 09:10:59;;;;;;;7.50;3.00;;;12.60;99.90;;;;;;5114377;28;20259;-58
2023/04/12 09:13:35;;;;;;;9.40;3.65;;;12.90;99.90;;;;;;5114614;28;20193;-58
2023/04/12 09:16:02;;;;;;;10.20;2.80;;;13.00;99.90;;;;;;5114509;28;20176;-58
2023/04/12 09:18:28;;;;;;;9.40;3.05;;;13.20;99.90;;;;;;5114354;28;20174;-58
2023/04/12 09:21:10;;;;;;;7.93;2.60;;;13.10;99.90;;;;;;5114342;28;20176;-57
2023/04/12 09:23:36;;;;;;;6.88;2.83;;;13.30;99.90;;;;;;5114459;28;20241;-59
2023/04/12 09:26:02;;;;;;;7.95;2.88;;;13.50;99.90;;;;;;5114454;28;20208;-58
2023/04/12 09:28:29;;;;;;;12.52;2.63;;;13.50;99.90;;;;;;5114076;28;20706;-58
2023/04/12 09:30:57;;;;;;;6.78;2.80;;;13.50;99.90;;;;;;5114058;28;20299;-58
2023/04/12 09:33:38;;;;;;;7.28;2.60;;;13.40;99.90;;;;;;5114113;28;20250;-58
2023/04/12 09:36:05;;;;;;;8.57;3.15;;;13.50;99.90;;;;;;5114365;28;20165;-58
2023/04/12 09:38:32;;;;;;;7.32;2.78;;;13.50;99.90;;;;;;5114195;28;20210;-58
2023/04/12 09:41:24;;;;;;;9.35;3.00;;;13.40;99.90;;;;;;5114079;28;20197;-59
2023/04/12 09:43:50;;;;;;;10.50;3.10;;;13.50;99.90;;;;;;5113830;28;20169;-58
2023/04/12 09:46:16;;;;;;;8.25;2.63;;;13.30;99.90;;;;;;5113803;28;20264;-58
2023/04/12 09:48:49;;;;;;;8.40;2.50;;;13.30;99.90;;;;;;5114080;28;20706;-58
2023/04/12 09:51:32;;;;;;;8.75;3.55;;;13.10;99.90;;;;;;5113968;28;20255;-58
2023/04/12 09:54:02;;;;;;;8.80;3.08;;;13.10;99.90;;;;;;5113850;28;20678;-58
2023/04/12 09:56:34;;;;;;;15.55;3.70;;;12.90;99.90;;;;;;5113819;28;20157;-58
2023/04/12 09:59:02;;;;;;;10.95;3.17;;;13.00;99.90;;;;;;5113841;28;20223;-58
2023/04/12 10:01:33;;;;;;;10.68;3.50;;;13.00;99.90;;;;;;5113751;28;20264;-58
2023/04/12 10:03:59;;;;;;;10.38;3.38;;;13.00;99.90;;;;;;5113836;28;20161;-58
2023/04/12 10:06:26;;;;;;;13.25;3.70;;;13.20;99.90;;;;;;5113725;28;20197;-57
2023/04/12 10:08:53;;;;;;;12.35;3.78;;;13.10;99.90;;;;;;5113982;28;20165;-58
2023/04/12 10:11:18;;;;;;;13.70;4.10;;;13.00;99.90;;;;;;5113406;28;20205;-58
2023/04/12 10:13:45;;;;;;;12.27;4.25;;;12.90;99.90;;;;;;5113785;28;20250;-58
2023/04/12 10:16:12;;;;;;;15.57;4.82;;;12.70;99.90;;;;;;5113737;28;20262;-58
2023/04/12 10:18:38;;;;;;;15.23;4.25;;;12.20;99.90;;;;;;5113602;28;20165;-58
2023/04/12 10:21:05;;;;;;;12.60;4.15;;;12.00;99.90;;;;;;5113536;28;20169;-58
2023/04/12 10:23:31;;;;;;;12.38;3.67;;;12.10;99.90;;;;;;5113503;28;20178;-58
2023/04/12 10:25:58;;;;;;;13.57;4.35;;;12.30;99.90;;;;;;5113303;28;20268;-58
2023/04/12 10:28:24;;;;;;;14.07;4.15;;;12.50;99.90;;;;;;5113670;28;20173;-58
2023/04/12 10:30:53;;;;;;;14.88;4.60;;;12.70;99.90;;;;;;5113580;28;20201;-58
2023/04/12 10:33:29;;;;;;;15.82;4.60;;;12.70;99.90;;;;;;5113454;28;20176;-58
2023/04/12 10:36:02;;;;;;;10.57;3.95;;;12.80;99.90;;;;;;5113516;28;20169;-58
2023/04/12 10:38:32;;;;;;;9.48;3.15;;;12.60;99.90;;;;;;5113171;28;20173;-58
2023/04/12 10:41:20;;;;;;;10.70;2.95;;;12.50;99.90;;;;;;5115485;28;20225;-58
2023/04/12 10:43:47;;;;;;;8.15;2.58;;;12.50;99.90;;;;;;5117534;28;20180;-58
2023/04/12 10:46:37;;;;;;;8.40;2.58;;;12.50;99.90;;;;;;5117345;28;20172;-58
2023/04/12 10:49:10;;;;;;;7.90;2.80;;;12.80;99.90;;;;;;5117410;28;20216;-58
2023/04/12 10:51:37;;;;;;;10.95;2.90;;;13.20;99.90;;;;;;5117057;28;20615;-58
2023/04/12 10:54:17;;;;;;;7.32;2.83;;;13.40;99.90;;;;;;5117327;28;20658;-58
2023/04/12 10:56:44;;;;;;;13.80;3.53;;;13.40;99.90;;;;;;5117169;28;20613;-58
2023/04/12 10:59:14;;;;;;;9.27;2.58;;;13.40;99.90;;;;;;5117107;28;20169;-58
2023/04/12 11:01:40;;;;;;;9.88;3.05;;;13.50;99.90;;;;;;5116996;28;20577;-59
2023/04/12 11:04:14;;;;;;;9.68;2.80;;;13.40;99.90;;;;;;5117192;28;20173;-58
2023/04/12 11:06:50;;;;;;;8.27;3.10;;;13.40;99.90;;;;;;5117022;28;20568;-58
2023/04/12 11:09:17;;;;;;;12.32;3.25;;;13.70;99.90;;;;;;5117032;28;20173;-59
2023/04/12 11:11:43;;;;;;;10.50;3.08;;;14.00;99.90;;;;;;5116722;28;20205;-59
2023/04/12 11:14:14;;;;;;;9.95;3.08;;;14.30;99.90;;;;;;5117119;28;20214;-66
2023/04/12 11:17:07;;;;;;;9.15;2.67;;;14.70;99.90;;;;;;5116945;28;20173;-58
2023/04/12 11:19:36;;;;;;;8.82;2.53;;;14.90;99.90;;;;;;5116786;28;20161;-58
2023/04/12 11:22:14;;;;;;;7.95;2.70;;;14.60;99.90;;;;;;5116700;28;20176;-59
2023/04/12 11:24:49;;;;;;;11.60;3.10;;;14.30;99.90;;;;;;5116775;28;20214;-58
2023/04/12 11:27:15;;;;;;;7.55;2.10;;;14.10;99.90;;;;;;5116701;28;20179;-58
2023/04/12 11:29:42;;;;;;;8.32;2.20;;;13.30;99.90;;;;;;5116470;28;20182;-58
2023/04/12 11:32:12;;;;;;;5.72;2.10;;;12.50;99.90;;;;;;5116483;28;20196;-58
2023/04/12 11:34:39;;;;;;;6.50;1.45;;;11.60;99.90;;;;;;5116451;28;20185;-58
2023/04/12 11:37:08;;;;;;;2.72;1.67;;;11.10;99.90;;;;;;5116638;28;20170;-58
2023/04/12 11:39:41;;;;;;;2.97;1.50;;;10.90;99.90;;;;;;5116501;28;20646;-58
2023/04/12 11:42:15;;;;;;;4.10;1.60;;;11.20;99.90;;;;;;5116679;28;20166;-58
2023/04/12 11:44:43;;;;;;;2.60;1.15;;;11.70;99.90;;;;;;5116256;28;20209;-58
2023/04/12 11:47:14;;;;;;;7.35;2.08;;;12.00;99.90;;;;;;5115978;28;20170;-57
2023/04/12 11:49:45;;;;;;;6.45;1.67;;;12.30;99.90;;;;;;5116299;28;20177;-58
2023/04/12 11:52:11;;;;;;;5.60;1.83;;;12.60;99.90;;;;;;5114812;28;20189;-58
2023/04/12 11:54:40;;;;;;;5.28;1.73;;;12.80;99.90;;;;;;5116258;28;20585;-58
2023/04/12 11:57:06;;;;;;;4.53;1.60;;;13.00;99.90;;;;;;5116027;28;20177;-58
2023/04/12 11:59:33;;;;;;;5.05;1.70;;;13.10;99.90;;;;;;5115986;28;20181;-58
2023/04/12 12:02:01;;;;;;;5.15;1.92;;;13.20;99.90;;;;;;5115686;28;20181;-58
2023/04/12 12:04:28;;;;;;;4.88;1.85;;;13.40;99.90;;;;;;5116018;28;20195;-58
2023/04/12 12:06:56;;;;;;;5.95;2.10;;;13.50;99.90;;;;;;5115922;28;20215;-58
2023/04/12 12:09:22;;;;;;;8.13;1.95;;;13.40;99.90;;;;;;5115872;28;20165;-57
2023/04/12 12:11:48;;;;;;;5.60;1.48;;;13.30;99.90;;;;;;5115707;28;20253;-57
2023/04/12 12:14:18;;;;;;;4.22;1.77;;;13.60;99.90;;;;;;5115593;28;20589;-58
2023/04/12 12:16:59;;;;;;;4.22;1.75;;;13.80;99.90;;;;;;5115934;28;20177;-58
2023/04/12 12:19:40;;;;;;;3.72;1.33;;;13.80;99.90;;;;;;5097448;28;20181;-57
2023/04/12 12:22:11;;;;;;;7.32;1.38;;;13.90;99.90;;;;;;5115594;28;20257;-57
2023/04/12 12:24:38;;;;;;;2.47;1.27;;;13.80;99.90;;;;;;5115362;28;20161;-57
2023/04/12 12:27:04;;;;;;;2.42;1.08;;;13.90;99.90;;;;;;5115584;28;20539;-57
2023/04/12 12:29:37;;;;;;;3.03;1.20;;;13.60;99.90;;;;;;5115371;28;20169;-58
2023/04/12 12:32:11;;;;;;;4.05;1.33;;;13.60;99.90;;;;;;5115339;28;20230;-57
2023/04/12 12:34:37;;;;;;;2.15;1.15;;;13.60;99.90;;;;;;5115258;28;20283;-57
2023/04/12 12:37:06;;;;;;;5.20;1.50;;;13.80;99.90;;;;;;5115207;28;20194;-58
2023/04/12 12:39:31;;;;;;;2.92;1.35;;;13.90;99.90;;;;;;5115446;28;20177;-58
2023/04/12 12:41:57;;;;;;;5.65;1.30;;;14.40;99.90;;;;;;5115311;28;20176;-58
2023/04/12 12:44:23;;;;;;;4.05;1.38;;;14.40;99.90;;;;;;5115239;28;20534;-58
2023/04/12 12:46:49;;;;;;;7.50;1.60;;;14.30;99.90;;;;;;5115167;28;20169;-58
2023/04/12 12:49:15;;;;;;;4.15;1.25;;;14.40;99.90;;;;;;5114759;28;20255;-58
2023/04/12 12:51:41;;;;;;;5.72;1.40;;;14.30;99.90;;;;;;5114863;28;20686;-58
2023/04/12 12:54:07;;;;;;;2.35;1.20;;;14.00;99.90;;;;;;5114905;28;20212;-58